createdAt,value
2019-05-19T00:01:49.297Z,16.12
2019-05-19T00:06:53.173Z,16.02
2019-05-19T00:11:57.149Z,16.52
2019-05-19T00:17:01.031Z,16.25
2019-05-19T00:22:04.895Z,15.78
2019-05-19T00:27:08.773Z,16.15
2019-05-19T00:32:12.678Z,17.60
2019-05-19T00:37:16.560Z,16.60
2019-05-19T00:42:20.538Z,18.60
2019-05-19T00:47:24.409Z,17.17
2019-05-19T00:52:28.281Z,18.87
2019-05-19T00:57:32.987Z,20.60
2019-05-19T01:02:36.871Z,19.50
2019-05-19T01:07:40.917Z,22.80
2019-05-19T01:12:44.793Z,22.67
2019-05-19T01:17:48.806Z,24.23
2019-05-19T01:22:52.782Z,21.95
2019-05-19T01:27:56.666Z,21.42
2019-05-19T01:33:00.543Z,22.75
2019-05-19T01:38:04.436Z,23.52
2019-05-19T01:43:08.581Z,21.35
2019-05-19T01:48:12.456Z,20.75
2019-05-19T01:53:16.324Z,21.07
2019-05-19T01:58:20.201Z,19.70
2019-05-19T02:03:24.087Z,19.57
2019-05-19T02:08:27.968Z,21.48
2019-05-19T02:13:31.843Z,19.57
2019-05-19T02:18:35.682Z,19.98
2019-05-19T02:23:39.592Z,20.75
2019-05-19T02:28:43.475Z,21.55
2019-05-19T02:33:47.359Z,21.90
2019-05-19T02:38:51.268Z,22.80
2019-05-19T02:43:56.775Z,21.77
2019-05-19T02:49:02.637Z,20.50
2019-05-19T02:54:08.607Z,19.90
2019-05-19T02:59:13.790Z,18.52
2019-05-19T03:04:17.751Z,18.52
2019-05-19T03:09:21.632Z,18.25
2019-05-19T03:14:25.535Z,21.45
2019-05-19T03:19:29.426Z,21.97
2019-05-19T03:24:33.315Z,23.02
2019-05-19T03:29:39.013Z,24.55
2019-05-19T03:34:42.873Z,24.37
2019-05-19T03:39:46.776Z,25.35
2019-05-19T03:44:50.644Z,26.87
2019-05-19T03:49:54.537Z,28.25
2019-05-19T03:54:58.412Z,25.45
2019-05-19T04:00:02.346Z,23.47
2019-05-19T04:05:09.904Z,24.80
2019-05-19T04:10:13.916Z,24.20
2019-05-19T04:15:17.888Z,22.80
2019-05-19T04:20:22.013Z,23.12
2019-05-19T04:25:25.873Z,22.45
2019-05-19T04:30:29.774Z,21.73
2019-05-19T04:35:33.663Z,20.48
2019-05-19T04:40:37.558Z,20.57
2019-05-19T04:45:41.422Z,19.70
2019-05-19T04:50:45.314Z,19.90
2019-05-19T04:55:49.194Z,18.25
2019-05-19T05:00:53.102Z,17.25
2019-05-19T05:05:56.973Z,16.90
2019-05-19T05:11:00.860Z,15.68
2019-05-19T05:16:04.753Z,15.10
2019-05-19T05:21:08.613Z,14.98
2019-05-19T05:26:12.503Z,14.25
2019-05-19T05:31:16.333Z,14.53
2019-05-19T05:36:20.273Z,13.68
2019-05-19T05:41:24.142Z,14.33
2019-05-19T05:46:28.004Z,13.32
2019-05-19T05:51:31.883Z,14.47
2019-05-19T05:56:35.775Z,13.18
2019-05-19T06:01:39.703Z,12.73
2019-05-19T06:06:45.769Z,12.88
2019-05-19T06:11:49.195Z,12.78
2019-05-19T06:16:53.071Z,11.80
2019-05-19T06:21:56.954Z,12.50
2019-05-19T06:27:00.843Z,11.80
2019-05-19T06:32:09.976Z,11.22
2019-05-19T06:37:13.875Z,10.65
2019-05-19T06:42:17.756Z,11.38
2019-05-19T06:47:21.643Z,11.22
2019-05-19T06:52:25.464Z,11.57
2019-05-19T06:57:29.391Z,10.38
2019-05-19T07:02:33.312Z,10.50
2019-05-19T07:07:37.172Z,10.23
2019-05-19T07:12:41.053Z,10.85
2019-05-19T07:17:45.148Z,11.22
2019-05-19T07:22:49.021Z,10.80
2019-05-19T07:27:52.937Z,12.45
2019-05-19T07:32:56.827Z,12.07
2019-05-19T07:38:00.734Z,11.80
2019-05-19T07:43:04.533Z,11.45
2019-05-19T07:48:08.456Z,12.13
2019-05-19T07:53:12.330Z,11.43
2019-05-19T07:58:16.169Z,11.25
2019-05-19T08:03:20.102Z,10.32
2019-05-19T08:08:23.978Z,10.55
2019-05-19T08:13:27.857Z,10.60
2019-05-19T08:18:31.735Z,9.40
2019-05-19T08:23:35.607Z,9.83
2019-05-19T08:28:39.490Z,9.75
2019-05-19T08:33:43.406Z,8.30
2019-05-19T08:38:47.279Z,8.78
2019-05-19T08:43:53.364Z,8.03
2019-05-19T08:48:58.587Z,8.93
2019-05-19T08:54:13.788Z,8.10
2019-05-19T08:59:07.873Z,7.08
2019-05-19T09:04:11.740Z,6.97
2019-05-19T09:09:15.624Z,7.78
2019-05-19T09:14:19.461Z,6.70
2019-05-19T09:19:23.337Z,6.83
2019-05-19T09:24:30.496Z,6.60
2019-05-19T09:29:32.727Z,6.42
2019-05-19T09:34:36.604Z,6.85
2019-05-19T09:39:40.489Z,6.60
2019-05-19T09:44:44.737Z,7.33
2019-05-19T09:49:48.839Z,6.87
2019-05-19T09:54:52.987Z,7.30
2019-05-19T09:59:56.971Z,6.87
2019-05-19T10:05:00.831Z,8.15
2019-05-19T10:10:14.025Z,8.48
2019-05-19T10:15:18.079Z,8.05
2019-05-19T10:20:22.288Z,8.35
2019-05-19T10:25:26.166Z,8.83
2019-05-19T10:30:30.066Z,7.37
2019-05-19T10:35:33.956Z,10.68
2019-05-19T10:40:37.856Z,15.68
2019-05-19T10:45:41.736Z,16.15
2019-05-19T10:50:45.642Z,16.00
2019-05-19T10:55:49.540Z,16.75
2019-05-19T11:00:53.429Z,16.05
2019-05-19T11:05:57.359Z,17.00
2019-05-19T11:11:01.232Z,19.00
2019-05-19T11:16:06.333Z,20.85
2019-05-19T11:21:10.250Z,21.20
2019-05-19T11:26:14.232Z,20.68
2019-05-19T11:31:18.173Z,20.85
2019-05-19T11:36:22.055Z,20.35
2019-05-19T11:41:25.971Z,19.55
2019-05-19T11:46:29.840Z,22.22
2019-05-19T11:51:33.712Z,19.12
2019-05-19T11:56:37.615Z,21.27
2019-05-19T12:01:41.492Z,21.60
2019-05-19T12:06:45.386Z,23.57
2019-05-19T12:11:49.288Z,24.92
2019-05-19T12:16:53.260Z,27.20
2019-05-19T12:21:58.037Z,25.75
2019-05-19T12:27:01.927Z,25.88
2019-05-19T12:32:05.798Z,27.13
2019-05-19T12:37:09.685Z,25.37
2019-05-19T12:42:13.647Z,25.23
2019-05-19T12:47:17.550Z,26.12
2019-05-19T12:52:21.413Z,23.27
2019-05-19T12:57:25.364Z,24.25
2019-05-19T13:02:29.261Z,24.15
2019-05-19T13:07:33.141Z,22.70
2019-05-19T13:12:37.017Z,22.52
2019-05-19T13:17:40.890Z,23.02
2019-05-19T13:22:44.769Z,23.65
2019-05-19T13:27:48.644Z,20.75
2019-05-19T13:32:52.571Z,19.00
2019-05-19T13:37:56.474Z,19.05
2019-05-19T13:43:00.665Z,18.27
2019-05-19T13:48:04.749Z,18.77
2019-05-19T13:53:08.916Z,16.57
2019-05-19T13:58:12.801Z,16.97
2019-05-19T14:03:16.688Z,16.82
2019-05-19T14:08:20.563Z,17.50
2019-05-19T14:13:24.488Z,18.92
2019-05-19T14:18:28.378Z,20.40
2019-05-19T14:23:32.250Z,20.85
2019-05-19T14:28:36.124Z,20.97
2019-05-19T14:33:40.007Z,20.50
2019-05-19T14:39:04.764Z,21.77
2019-05-19T14:44:05.688Z,20.40
2019-05-19T14:49:15.678Z,20.75
2019-05-19T14:54:19.629Z,20.52
2019-05-19T14:59:23.508Z,19.87
2019-05-19T15:04:27.413Z,19.12
2019-05-19T15:09:31.245Z,19.15
2019-05-19T15:14:35.183Z,18.57
2019-05-19T15:19:39.058Z,18.48
2019-05-19T15:24:43.637Z,17.67
2019-05-19T15:29:47.528Z,17.48
2019-05-19T15:34:51.440Z,17.32
2019-05-19T15:39:55.308Z,17.17
2019-05-19T15:44:59.509Z,18.12
2019-05-19T15:50:04.323Z,16.12
2019-05-19T15:55:08.355Z,16.27
2019-05-19T16:00:15.919Z,15.80
2019-05-19T16:05:19.804Z,14.93
2019-05-19T16:10:23.704Z,13.93
2019-05-19T16:15:27.685Z,13.53
2019-05-19T16:20:31.763Z,12.18
2019-05-19T16:25:35.634Z,12.95
2019-05-19T16:30:39.509Z,13.78
2019-05-19T16:35:43.379Z,13.62
2019-05-19T16:40:47.267Z,40.75
2019-05-19T16:45:51.187Z,18.65
2019-05-19T16:50:55.059Z,13.90
2019-05-19T16:55:59.022Z,12.03
2019-05-19T17:01:03.075Z,10.93
2019-05-19T17:06:06.968Z,5.85
2019-05-19T17:11:18.039Z,4.05
2019-05-19T17:16:16.333Z,4.10
2019-05-19T17:21:20.258Z,3.08
2019-05-19T17:26:24.157Z,3.70
2019-05-19T17:31:28.028Z,4.10
2019-05-19T17:36:31.997Z,5.03
2019-05-19T17:41:35.880Z,5.30
2019-05-19T17:46:39.757Z,5.50
2019-05-19T17:51:43.637Z,5.30
2019-05-19T17:56:48.319Z,4.92
2019-05-19T18:01:52.211Z,5.97
2019-05-19T18:06:56.068Z,5.40
2019-05-19T18:11:59.950Z,5.75
2019-05-19T18:17:04.143Z,5.40
2019-05-19T18:22:08.008Z,8.20
2019-05-19T18:27:11.903Z,10.13
2019-05-19T18:32:15.741Z,8.60
2019-05-19T18:37:19.644Z,7.75
2019-05-19T18:42:23.512Z,8.00
2019-05-19T18:48:06.101Z,10.88
2019-05-19T18:53:10.065Z,9.50
2019-05-19T18:58:14.007Z,8.15
2019-05-19T19:03:18.155Z,7.78
2019-05-19T19:08:22.811Z,7.62
2019-05-19T19:13:26.745Z,8.73
2019-05-19T19:18:30.677Z,8.43
2019-05-19T19:23:34.639Z,8.40
2019-05-19T19:28:38.580Z,9.15
2019-05-19T19:33:42.521Z,9.93
2019-05-19T19:38:46.447Z,14.60
2019-05-19T19:43:50.421Z,11.00
2019-05-19T19:48:54.577Z,10.32
2019-05-19T19:53:58.527Z,11.60
2019-05-19T19:59:02.647Z,12.13
2019-05-19T20:04:06.656Z,12.13
2019-05-19T20:09:10.889Z,13.15
2019-05-19T20:14:14.865Z,13.48
2019-05-19T20:19:18.830Z,13.98
2019-05-19T20:24:22.977Z,17.05
2019-05-19T20:29:27.007Z,14.60
2019-05-19T20:34:30.976Z,14.15
2019-05-19T20:39:34.928Z,14.78
2019-05-19T20:44:38.840Z,14.55
2019-05-19T20:49:42.900Z,15.40
2019-05-19T20:54:46.875Z,15.25
2019-05-19T20:59:50.861Z,14.30
2019-05-19T21:04:54.874Z,14.25
2019-05-19T21:09:58.834Z,14.03
2019-05-19T21:15:02.872Z,14.55
2019-05-19T21:20:06.941Z,14.00
2019-05-19T21:25:11.087Z,13.75
2019-05-19T21:30:15.170Z,14.98
2019-05-19T21:35:19.379Z,13.93
2019-05-19T21:40:23.325Z,13.58
2019-05-19T21:45:27.265Z,13.70
2019-05-19T21:50:31.205Z,13.95
2019-05-19T21:55:35.289Z,13.20
2019-05-19T22:00:39.648Z,14.33
2019-05-19T22:05:52.806Z,13.30
2019-05-19T22:10:49.470Z,14.33
2019-05-19T22:15:53.423Z,13.25
2019-05-19T22:20:57.508Z,13.28
2019-05-19T22:26:01.554Z,14.15
2019-05-19T22:31:05.678Z,14.05
2019-05-19T22:36:09.721Z,13.13
2019-05-19T22:41:13.708Z,13.93
2019-05-19T22:46:17.987Z,13.25
2019-05-19T22:51:22.860Z,14.95
2019-05-19T22:56:26.961Z,14.98
2019-05-19T23:01:30.913Z,14.78
2019-05-19T23:06:35.010Z,15.38
2019-05-19T23:11:39.051Z,14.70
2019-05-19T23:16:43.073Z,14.98
2019-05-19T23:21:47.098Z,14.90
2019-05-19T23:26:51.047Z,13.90
2019-05-19T23:32:06.672Z,15.00
2019-05-19T23:37:00.717Z,14.07
2019-05-19T23:42:04.749Z,15.60
2019-05-19T23:47:08.710Z,15.20
2019-05-19T23:52:12.848Z,15.20
2019-05-19T23:57:16.788Z,14.87
